Miami, FL (33156)

4:26 AM EST on February 12, 2016 (GMT -0500)
Village of Pinecrest | | Change Station
CLOSE
Current Station
Personal Weather Station
Location: Village of Pinecrest / Miami, FL
Elevation: 15 ft
Nearby Weather Stations

Elev 15 ft 25.66 °N, 80.30 °W | Updated 4 minutes ago

Clear
Clear
51.5 °F
Feels Like 51.5 °F
N
0.0
Wind Variable Wind from North
Gusts 0.0 mph

Today
High -- | Low -- °F
--% Chance of Precip.
Yesterday
High -- | Low -- °F
Precip. -- in
Pressure 30.25 in
Visibility 10.0 miles
Clouds Few 3500 ft
Dew Point 48 °F
Humidity 89%
Rainfall Not available.
Snow Depth Not available.
6:58 AM 6:12 PM
Waxing Crescent, 19% visible
METAR KMIA 120853Z 35003KT 10SM FEW035 13/07 A3025 RMK AO2 SLP242 T01330072 57007
Pressure 30.25 in
Visibility 10.0 miles
Clouds Few 3500 ft
Dew Point 48 °F
Humidity 89%
Rainfall Not available.
Snow Depth Not available.
6:58 AM 6:12 PM
Waxing Crescent, 19% visible
METAR KMIA 120853Z 35003KT 10SM FEW035 13/07 A3025 RMK AO2 SLP242 T01330072 57007

10-Day Weather Forecast

Almanac

Astronomy

Feb. 12, 2016 Rise Set
Actual Time
Civil Twilight
Nautical Twilight
Astronomical Twilight
Moon
Length of Visible Light
Length of Day
Tomorrow will be .
, % of the Moon is Illuminated

Today's Extremes

State Highs State Lows

Community

WunderPhotos

Upload Photos

1,892,286 photos uploaded!

WunderBlog® & News

Nearby

Air Quality

  Air Quality AQ Index Pollutant
Not available.

Snow Depth

Station Depth Elevation

Earthquake Activity

City Distance Mag. Time & Date
Minimum magnitude displayed is 2.5.

Coastal Water Temperatures

Place Temperature

Stations

Nearby Weather Stations

Station Location Temp. Windchill Dew Point Humidity Wind Precip. Elev Updated Type
                   

Watches & Warnings

There are currently no watches in effect.